Time,TemperatureF,DewpointF,PressureIn,WindDirection,WindDirectionDegrees,WindSpeedMPH,WindSpeedGustMPH,Humidity,HourlyPrecipIn,Conditions,Clouds,dailyrainin,SolarRadiationWatts/m^2,SoftwareType,DateUTC
2014-01-07 00:01:00,-5.8,-11.4,30.06,West,273,23.4,32.5,76,0.00,,OVC030,0.18,0.00,VWS V14.01,2014-01-07 05:01:00,
2014-01-07 00:06:00,-5.9,-11.8,30.06,SW,234,5.2,16.9,75,0.00,,OVC030,0.00,0.00,VWS V14.01,2014-01-07 05:06:00,
2014-01-07 00:11:00,-6.0,-11.9,30.06,SSW,205,7.8,13.0,75,0.00,,OVC030,0.00,0.00,VWS V14.01,2014-01-07 05:11:00,
2014-01-07 00:16:00,-6.2,-12.3,30.07,WSW,256,5.2,19.5,74,0.00,,OVC030,0.00,0.00,VWS V14.01,2014-01-07 05:16:00,
2014-01-07 00:21:00,-6.2,-12.3,30.07,SW,232,10.4,24.7,74,0.00,,BKN026,0.00,0.00,VWS V14.01,2014-01-07 05:21:00,
2014-01-07 00:26:00,-6.3,-12.7,30.07,West,276,11.7,20.8,73,0.00,,BKN026,0.00,0.00,VWS V14.01,2014-01-07 05:26:00,
2014-01-07 00:31:00,-6.3,-12.7,30.07,West,275,13.0,15.6,73,0.00,,BKN026,0.00,0.00,VWS V14.01,2014-01-07 05:31:00,
2014-01-07 00:36:00,-6.5,-13.1,30.08,WSW,239,9.1,11.7,72,0.00,,BKN026,0.00,0.00,VWS V14.01,2014-01-07 05:36:00,
2014-01-07 00:41:00,-6.5,-13.1,30.08,SW,229,15.6,20.8,72,0.00,,BKN030,0.00,0.00,VWS V14.01,2014-01-07 05:41:00,
2014-01-07 00:46:00,-6.5,-13.1,30.08,West,263,2.6,2.6,72,0.00,,BKN030,0.00,0.00,VWS V14.01,2014-01-07 05:46:00,
2014-01-07 00:51:00,-6.7,-13.3,30.08,West,261,13.0,13.0,72,0.00,,BKN030,0.00,0.00,VWS V14.01,2014-01-07 05:51:00,
2014-01-07 00:56:00,-6.6,-13.2,30.08,WSW,246,2.6,6.5,72,0.00,,BKN030,0.00,0.00,VWS V14.01,2014-01-07 05:56:00,
2014-01-07 01:01:00,-6.7,-13.3,30.08,SW,227,5.2,15.6,72,0.00,,OVC030,0.00,0.00,VWS V14.01,2014-01-07 06:01:00,
2014-01-07 01:06:00,-6.7,-13.3,30.08,West,263,13.0,13.0,72,0.00,,OVC030,0.00,0.00,VWS V14.01,2014-01-07 06:06:00,
2014-01-07 01:11:00,-6.8,-13.2,30.08,WSW,248,13.0,19.5,73,0.00,,OVC030,0.00,0.00,VWS V14.01,2014-01-07 06:11:00,
2014-01-07 01:16:00,-6.9,-13.3,30.08,West,281,6.5,19.5,73,0.00,,OVC030,0.00,0.00,VWS V14.01,2014-01-07 06:16:00,
2014-01-07 01:21:00,-7.0,-13.6,30.09,West,273,11.7,18.2,72,0.00,,OVC022,0.00,0.00,VWS V14.01,2014-01-07 06:21:00,
2014-01-07 01:26:00,-7.0,-13.6,30.09,WSW,257,7.8,7.8,72,0.00,,OVC022,0.00,0.00,VWS V14.01,2014-01-07 06:26:00,
2014-01-07 01:31:00,-7.0,-13.6,30.09,WSW,246,2.6,9.1,72,0.00,,OVC022,0.00,0.00,VWS V14.01,2014-01-07 06:31:00,
2014-01-07 01:36:00,-7.0,-13.6,30.10,WSW,257,18.2,18.2,72,0.00,,OVC022,0.00,0.00,VWS V14.01,2014-01-07 06:36:00,
2014-01-07 01:41:00,-7.1,-13.5,30.10,SW,236,2.6,3.9,73,0.00,,OVC030,0.00,0.00,VWS V14.01,2014-01-07 06:41:00,
2014-01-07 01:46:00,-7.1,-13.5,30.10,West,263,14.3,18.2,73,0.00,,OVC030,0.00,0.00,VWS V14.01,2014-01-07 06:46:00,
2014-01-07 01:51:00,-7.3,-13.6,30.10,WSW,240,6.5,6.5,73,0.00,,OVC030,0.00,0.00,VWS V14.01,2014-01-07 06:51:00,
2014-01-07 01:56:00,-7.3,-13.6,30.11,West,267,13.0,13.0,73,0.00,,OVC030,0.00,0.00,VWS V14.01,2014-01-07 06:56:00,
2014-01-07 02:01:00,-7.5,-13.8,30.11,SW,231,9.1,15.6,73,0.00,,BKN030,0.00,0.00,VWS V14.01,2014-01-07 07:01:00,
2014-01-07 02:06:00,-7.6,-13.9,30.12,West,280,7.8,18.2,73,0.00,,BKN030,0.00,0.00,VWS V14.01,2014-01-07 07:06:00,
2014-01-07 02:11:00,-7.7,-14.0,30.12,WSW,257,11.7,11.7,73,0.00,,BKN030,0.00,0.00,VWS V14.01,2014-01-07 07:11:00,
2014-01-07 02:15:00,-7.7,-14.0,30.12,SW,229,6.5,16.9,73,0.00,,BKN030,0.00,0.00,VWS V14.01,2014-01-07 07:15:00,
2014-01-07 02:20:00,-7.8,-14.4,30.13,WSW,239,23.4,29.9,72,0.00,,SCT026,0.00,0.00,VWS V14.01,2014-01-07 07:20:00,
2014-01-07 02:25:00,-7.9,-14.5,30.13,WNW,299,16.9,27.3,72,0.00,,SCT026,0.00,0.00,VWS V14.01,2014-01-07 07:25:00,
2014-01-07 02:30:00,-8.0,-14.6,30.14,WSW,252,1.3,26.0,72,0.00,,SCT026,0.00,0.00,VWS V14.01,2014-01-07 07:30:00,
2014-01-07 02:35:00,-8.1,-15.0,30.14,West,261,1.3,19.5,71,0.00,,SCT026,0.00,0.00,VWS V14.01,2014-01-07 07:35:00,
2014-01-07 02:36:00,-8.1,-15.0,30.14,SW,226,1.3,19.5,71,0.00,,SCT026,0.00,0.00,VWS V14.01,2014-01-07 07:36:00,
2014-01-07 02:41:00,-8.1,-15.0,30.14,SSW,211,3.9,19.5,71,0.00,,BKN026,0.00,0.00,VWS V14.01,2014-01-07 07:41:00,
2014-01-07 02:46:00,-8.1,-15.0,30.14,West,267,2.6,18.2,71,0.00,,BKN026,0.00,0.00,VWS V14.01,2014-01-07 07:46:00,
2014-01-07 02:51:00,-8.1,-14.7,30.14,WSW,256,2.6,19.5,72,0.00,,BKN026,0.00,0.00,VWS V14.01,2014-01-07 07:51:00,
2014-01-07 02:56:00,-8.1,-14.7,30.15,West,260,6.5,15.6,72,0.00,,BKN026,0.00,0.00,VWS V14.01,2014-01-07 07:56:00,
2014-01-07 03:01:00,-8.2,-14.8,30.15,West,275,5.2,23.4,72,0.00,,BKN028,0.00,0.00,VWS V14.01,2014-01-07 08:01:00,
2014-01-07 03:06:00,-8.2,-14.8,30.15,NW,304,3.9,22.1,72,0.00,,BKN028,0.00,0.00,VWS V14.01,2014-01-07 08:06:00,
2014-01-07 03:11:00,-8.3,-14.9,30.15,SW,233,5.2,18.2,72,0.00,,BKN028,0.00,0.00,VWS V14.01,2014-01-07 08:11:00,
2014-01-07 03:16:00,-8.3,-14.9,30.15,West,272,20.8,24.7,72,0.00,,BKN028,0.00,0.00,VWS V14.01,2014-01-07 08:16:00,
2014-01-07 03:21:00,-8.3,-14.9,30.15,West,275,13.0,24.7,72,0.00,,OVC023,0.00,0.00,VWS V14.01,2014-01-07 08:21:00,
2014-01-07 03:26:00,-8.3,-14.9,30.15,WSW,250,1.3,11.7,72,0.00,,OVC023,0.00,0.00,VWS V14.01,2014-01-07 08:26:00,
2014-01-07 03:31:00,-8.4,-15.0,30.15,West,270,13.0,13.0,72,0.00,,OVC023,0.00,0.00,VWS V14.01,2014-01-07 08:31:00,
2014-01-07 03:36:00,-8.4,-14.7,30.15,West,271,0.0,14.3,73,0.00,,OVC023,0.00,0.00,VWS V14.01,2014-01-07 08:36:00,
2014-01-07 03:41:00,-8.4,-14.7,30.15,NNW,330,9.1,20.8,73,0.00,,OVC026,0.00,0.00,VWS V14.01,2014-01-07 08:41:00,
2014-01-07 03:46:00,-8.4,-14.7,30.15,SW,235,11.7,24.7,73,0.00,,OVC026,0.00,0.00,VWS V14.01,2014-01-07 08:46:00,
2014-01-07 03:51:00,-8.4,-14.7,30.15,WSW,249,3.9,15.6,73,0.00,,OVC026,0.00,0.00,VWS V14.01,2014-01-07 08:51:00,
2014-01-07 03:56:00,-8.4,-14.7,30.15,WSW,249,11.7,14.3,73,0.00,,OVC026,0.00,0.00,VWS V14.01,2014-01-07 08:56:00,
2014-01-07 04:01:00,-8.6,-14.9,30.15,SSW,213,5.2,26.0,73,0.00,,OVC025,0.00,0.00,VWS V14.01,2014-01-07 09:01:00,
2014-01-07 04:06:00,-8.7,-15.0,30.15,WSW,242,13.0,22.1,73,0.00,,OVC025,0.00,0.00,VWS V14.01,2014-01-07 09:06:00,
2014-01-07 04:11:00,-8.7,-15.0,30.15,WSW,246,11.7,19.5,73,0.00,,OVC025,0.00,0.00,VWS V14.01,2014-01-07 09:11:00,
2014-01-07 04:16:00,-8.8,-15.1,30.15,SW,227,5.2,23.4,73,0.00,,OVC025,0.00,0.00,VWS V14.01,2014-01-07 09:16:00,
2014-01-07 04:21:00,-8.9,-15.2,30.15,WSW,245,11.7,26.0,73,0.00,,OVC020,0.00,0.00,VWS V14.01,2014-01-07 09:21:00,
2014-01-07 04:26:00,-9.0,-15.3,30.16,WSW,258,1.3,24.7,73,0.00,,OVC020,0.00,0.00,VWS V14.01,2014-01-07 09:26:00,
2014-01-07 04:31:00,-9.0,-15.3,30.16,SSW,197,6.5,23.4,73,0.00,,OVC020,0.00,0.00,VWS V14.01,2014-01-07 09:31:00,
2014-01-07 04:36:00,-9.0,-15.3,30.16,WSW,244,3.9,22.1,73,0.00,,OVC020,0.00,0.00,VWS V14.01,2014-01-07 09:36:00,
2014-01-07 04:41:00,-9.0,-15.3,30.16,WSW,249,0.0,16.9,73,0.00,,OVC020,0.00,0.00,VWS V14.01,2014-01-07 09:41:00,
2014-01-07 04:46:00,-9.1,-15.4,30.16,West,265,5.2,20.8,73,0.00,,OVC020,0.00,0.00,VWS V14.01,2014-01-07 09:46:00,
2014-01-07 04:51:00,-9.1,-15.4,30.16,WSW,252,6.5,24.7,73,0.00,,OVC020,0.00,0.00,VWS V14.01,2014-01-07 09:51:00,
2014-01-07 04:56:00,-9.2,-15.5,30.16,WSW,254,7.8,19.5,73,0.00,,OVC020,0.00,0.00,VWS V14.01,2014-01-07 09:56:00,
2014-01-07 05:01:00,-9.3,-15.6,30.16,WSW,242,10.4,26.0,73,0.00,,OVC020,0.00,0.00,VWS V14.01,2014-01-07 10:01:00,
2014-01-07 05:06:00,-9.3,-15.6,30.16,WSW,238,11.7,18.2,73,0.00,,OVC020,0.00,0.00,VWS V14.01,2014-01-07 10:06:00,
2014-01-07 05:11:00,-9.3,-15.6,30.16,SW,234,15.6,20.8,73,0.00,,OVC020,0.00,0.00,VWS V14.01,2014-01-07 10:11:00,
2014-01-07 05:16:00,-9.3,-15.6,30.17,WNW,286,13.0,14.3,73,0.00,,OVC020,0.00,0.00,VWS V14.01,2014-01-07 10:16:00,
2014-01-07 05:21:00,-9.3,-15.6,30.17,WSW,246,1.3,20.8,73,0.00,,OVC022,0.00,0.00,VWS V14.01,2014-01-07 10:21:00,
2014-01-07 05:26:00,-9.3,-15.6,30.16,WSW,252,7.8,20.8,73,0.00,,OVC022,0.00,0.00,VWS V14.01,2014-01-07 10:26:00,
2014-01-07 05:31:00,-9.3,-15.6,30.17,WSW,244,5.2,22.1,73,0.00,,OVC022,0.00,0.00,VWS V14.01,2014-01-07 10:31:00,
2014-01-07 05:36:00,-9.3,-15.6,30.17,WSW,256,10.4,22.1,73,0.00,,OVC022,0.00,0.00,VWS V14.01,2014-01-07 10:36:00,
2014-01-07 05:41:00,-9.3,-15.3,30.17,SW,234,16.9,22.1,74,0.00,,BKN022,0.00,0.00,VWS V14.01,2014-01-07 10:41:00,
2014-01-07 05:46:00,-9.3,-15.3,30.17,SW,227,11.7,22.1,74,0.00,,BKN022,0.00,0.00,VWS V14.01,2014-01-07 10:46:00,
2014-01-07 05:51:00,-9.3,-15.3,30.16,West,276,16.9,19.5,74,0.00,,BKN022,0.00,0.00,VWS V14.01,2014-01-07 10:51:00,
2014-01-07 05:56:00,-9.2,-15.2,30.16,SW,235,9.1,18.2,74,0.00,,BKN022,0.00,0.00,VWS V14.01,2014-01-07 10:56:00,
2014-01-07 06:01:00,-9.2,-15.2,30.17,West,272,5.2,14.3,74,0.00,,OVC018,0.00,0.00,VWS V14.01,2014-01-07 11:01:00,
2014-01-07 06:05:00,-9.1,-15.1,30.17,WSW,245,5.2,20.8,74,0.00,,OVC018,0.00,0.00,VWS V14.01,2014-01-07 11:05:00,
2014-01-07 06:10:00,-9.1,-15.1,30.17,WSW,244,13.0,18.2,74,0.00,,OVC018,0.00,0.00,VWS V14.01,2014-01-07 11:10:00,
2014-01-07 06:15:00,-9.1,-15.1,30.17,West,267,15.6,15.6,74,0.00,,OVC018,0.00,0.00,VWS V14.01,2014-01-07 11:15:00,
2014-01-07 06:20:00,-9.1,-15.1,30.17,WSW,252,13.0,16.9,74,0.00,,OVC018,0.00,0.00,VWS V14.01,2014-01-07 11:20:00,
2014-01-07 06:25:00,-9.2,-15.0,30.17,West,263,2.6,24.7,75,0.00,,OVC018,0.00,0.00,VWS V14.01,2014-01-07 11:25:00,
2014-01-07 06:30:00,-9.2,-15.0,30.17,WSW,237,14.3,16.9,75,0.00,,OVC018,0.00,0.00,VWS V14.01,2014-01-07 11:30:00,
2014-01-07 06:35:00,-9.2,-15.0,30.17,SW,225,5.2,19.5,75,0.00,,OVC018,0.00,0.00,VWS V14.01,2014-01-07 11:35:00,
2014-01-07 06:40:00,-9.2,-15.0,30.17,SW,227,15.6,20.8,75,0.00,,OVC018,0.00,0.00,VWS V14.01,2014-01-07 11:40:00,
2014-01-07 06:45:00,-9.1,-14.9,30.18,WSW,252,11.7,22.1,75,0.00,,OVC018,0.00,0.00,VWS V14.01,2014-01-07 11:45:00,
2014-01-07 06:50:00,-9.1,-14.9,30.18,SW,225,9.1,18.2,75,0.00,,OVC018,0.00,0.00,VWS V14.01,2014-01-07 11:50:00,
2014-01-07 06:55:00,-9.1,-14.9,30.18,WSW,242,7.8,19.5,75,0.00,,OVC018,0.00,0.00,VWS V14.01,2014-01-07 11:55:00,
2014-01-07 07:00:00,-9.1,-14.9,30.18,West,277,6.5,20.8,75,0.00,,OVC018,0.00,0.00,VWS V14.01,2014-01-07 12:00:00,
2014-01-07 07:05:00,-9.1,-14.9,30.19,SSW,212,11.7,16.9,75,0.00,,OVC018,0.00,0.00,VWS V14.01,2014-01-07 12:05:00,
2014-01-07 07:10:00,-9.1,-14.6,30.19,West,264,5.2,22.1,76,0.00,,OVC018,0.00,0.00,VWS V14.01,2014-01-07 12:10:00,
2014-01-07 07:15:00,-8.9,-14.7,30.20,South,191,15.6,15.6,75,0.00,,OVC018,0.00,0.00,VWS V14.01,2014-01-07 12:15:00,
2014-01-07 07:20:00,-8.8,-14.3,30.20,WSW,244,2.6,24.7,76,0.00,,OVC022,0.00,0.00,VWS V14.01,2014-01-07 12:20:00,
2014-01-07 07:25:00,-8.8,-14.3,30.20,SW,219,16.9,24.7,76,0.00,,OVC022,0.00,0.00,VWS V14.01,2014-01-07 12:25:00,
2014-01-07 07:30:00,-8.8,-14.3,30.20,SW,225,3.9,22.1,76,0.00,,OVC022,0.00,0.00,VWS V14.01,2014-01-07 12:30:00,
2014-01-07 07:35:00,-8.8,-14.3,30.21,SW,225,9.1,19.5,76,0.00,,OVC022,0.00,0.00,VWS V14.01,2014-01-07 12:35:00,
2014-01-07 07:40:00,-8.7,-14.2,30.22,WSW,250,13.0,26.0,76,0.00,,OVC021,0.00,0.00,VWS V14.01,2014-01-07 12:40:00,
2014-01-07 07:45:00,-8.6,-13.9,30.22,SW,236,5.2,18.2,77,0.00,,OVC021,0.00,0.00,VWS V14.01,2014-01-07 12:45:00,
2014-01-07 07:50:00,-8.6,-13.9,30.22,West,265,5.2,19.5,77,0.00,,OVC021,0.00,5.00,VWS V14.01,2014-01-07 12:50:00,
2014-01-07 07:55:00,-8.4,-13.7,30.22,WSW,243,13.0,28.6,77,0.00,,OVC021,0.00,9.00,VWS V14.01,2014-01-07 12:55:00,
2014-01-07 08:00:00,-8.3,-13.6,30.22,SW,219,14.3,23.4,77,0.00,,OVC015,0.00,14.00,VWS V14.01,2014-01-07 13:00:00,
2014-01-07 08:05:00,-8.2,-13.5,30.23,SSW,212,19.5,24.7,77,0.00,,OVC015,0.00,16.00,VWS V14.01,2014-01-07 13:05:00,
2014-01-07 08:10:00,-8.2,-13.2,30.23,WSW,239,15.6,27.3,78,0.00,,OVC015,0.00,19.00,VWS V14.01,2014-01-07 13:10:00,
2014-01-07 08:15:00,-8.2,-13.2,30.23,WSW,240,11.7,23.4,78,0.00,,OVC015,0.00,26.00,VWS V14.01,2014-01-07 13:15:00,
2014-01-07 08:20:00,-8.1,-13.1,30.23,West,261,5.2,19.5,78,0.00,,OVC013,0.00,35.00,VWS V14.01,2014-01-07 13:20:00,
2014-01-07 08:25:00,-8.0,-13.0,30.23,WSW,239,13.0,23.4,78,0.00,,OVC013,0.00,47.00,VWS V14.01,2014-01-07 13:25:00,
2014-01-07 08:30:00,-7.9,-12.9,30.23,WSW,240,6.5,18.2,78,0.00,,OVC013,0.00,44.00,VWS V14.01,2014-01-07 13:30:00,
2014-01-07 08:35:00,-7.7,-12.7,30.24,West,273,9.1,19.5,78,0.00,,OVC013,0.00,51.00,VWS V14.01,2014-01-07 13:35:00,
2014-01-07 08:40:00,-7.8,-12.8,30.24,SW,219,9.1,24.7,78,0.00,,OVC017,0.00,53.00,VWS V14.01,2014-01-07 13:40:00,
2014-01-07 08:45:00,-7.7,-12.7,30.24,WNW,294,20.8,23.4,78,0.00,,OVC017,0.00,60.00,VWS V14.01,2014-01-07 13:45:00,
2014-01-07 08:50:00,-7.7,-12.7,30.24,WSW,241,18.2,24.7,78,0.00,,OVC017,0.00,62.00,VWS V14.01,2014-01-07 13:50:00,
2014-01-07 08:55:00,-7.5,-12.5,30.25,SW,225,9.1,22.1,78,0.00,,OVC017,0.00,74.00,VWS V14.01,2014-01-07 13:55:00,
2014-01-07 09:00:00,-7.4,-12.4,30.25,SW,236,13.0,24.7,78,0.00,,OVC017,0.00,81.00,VWS V14.01,2014-01-07 14:00:00,
2014-01-07 09:05:00,-7.2,-12.2,30.25,WSW,245,16.9,24.7,78,0.00,,OVC017,0.00,95.00,VWS V14.01,2014-01-07 14:05:00,
2014-01-07 09:10:00,-7.1,-12.4,30.25,SW,228,7.8,23.4,77,0.00,,OVC017,0.00,93.00,VWS V14.01,2014-01-07 14:10:00,
2014-01-07 09:15:00,-7.0,-12.3,30.26,SW,236,18.2,27.3,77,0.00,,OVC017,0.00,113.00,VWS V14.01,2014-01-07 14:15:00,
2014-01-07 09:20:00,-6.9,-12.2,30.25,SSW,199,11.7,27.3,77,0.00,,OVC015,0.00,116.00,VWS V14.01,2014-01-07 14:20:00,
2014-01-07 09:25:00,-6.8,-12.1,30.26,SSW,206,6.5,27.3,77,0.00,,OVC015,0.00,141.00,VWS V14.01,2014-01-07 14:25:00,
2014-01-07 09:30:00,-6.6,-11.9,30.26,WNW,291,15.6,22.1,77,0.00,,OVC015,0.00,132.00,VWS V14.01,2014-01-07 14:30:00,
2014-01-07 09:35:00,-6.4,-11.7,30.26,West,265,11.7,23.4,77,0.00,,OVC015,0.00,132.00,VWS V14.01,2014-01-07 14:35:00,
2014-01-07 09:40:00,-6.3,-11.6,30.26,SSW,209,5.2,27.3,77,0.00,,OVC017,0.00,137.00,VWS V14.01,2014-01-07 14:40:00,
2014-01-07 09:45:00,-6.1,-11.4,30.26,WNW,288,11.7,22.1,77,0.00,,OVC017,0.00,167.00,VWS V14.01,2014-01-07 14:45:00,
2014-01-07 09:50:00,-5.8,-11.1,30.26,West,263,16.9,27.3,77,0.00,,OVC017,0.00,211.00,VWS V14.01,2014-01-07 14:50:00,
2014-01-07 09:55:00,-5.8,-11.1,30.27,WSW,247,15.6,26.0,77,0.00,,OVC017,0.00,163.00,VWS V14.01,2014-01-07 14:55:00,
2014-01-07 10:00:00,-5.8,-11.4,30.27,WSW,254,7.8,22.1,76,0.00,,OVC017,0.00,179.00,VWS V14.01,2014-01-07 15:00:00,
2014-01-07 10:05:00,-5.4,-11.0,30.27,SW,223,9.1,24.7,76,0.00,,OVC017,0.00,167.00,VWS V14.01,2014-01-07 15:05:00,
2014-01-07 10:10:00,-5.3,-10.9,30.27,West,280,10.4,20.8,76,0.00,,OVC017,0.00,265.00,VWS V14.01,2014-01-07 15:10:00,
2014-01-07 10:15:00,-5.0,-10.6,30.27,SSW,211,16.9,29.9,76,0.00,,OVC017,0.00,250.00,VWS V14.01,2014-01-07 15:15:00,
2014-01-07 10:20:00,-4.6,-10.2,30.27,SSW,209,10.4,20.8,76,0.00,,OVC019,0.00,204.00,VWS V14.01,2014-01-07 15:20:00,
2014-01-07 10:25:00,-4.6,-10.5,30.27,SW,218,13.0,27.3,75,0.00,,OVC019,0.00,230.00,VWS V14.01,2014-01-07 15:25:00,
2014-01-07 10:30:00,-4.8,-10.7,30.27,SW,221,13.0,32.5,75,0.00,,OVC019,0.00,227.00,VWS V14.01,2014-01-07 15:30:00,
2014-01-07 10:35:00,-4.8,-10.7,30.27,SW,230,15.6,26.0,75,0.00,,OVC019,0.00,253.00,VWS V14.01,2014-01-07 15:35:00,
2014-01-07 10:40:00,-4.5,-10.4,30.27,West,273,16.9,29.9,75,0.00,,OVC022,0.00,188.00,VWS V14.01,2014-01-07 15:40:00,
2014-01-07 10:45:00,-4.1,-10.0,30.27,WSW,239,13.0,20.8,75,0.00,,OVC022,0.00,227.00,VWS V14.01,2014-01-07 15:45:00,
2014-01-07 10:50:00,-4.0,-9.9,30.27,WSW,244,16.9,31.2,75,0.00,,OVC022,0.00,250.00,VWS V14.01,2014-01-07 15:50:00,
2014-01-07 10:55:00,-3.6,-9.5,30.27,WSW,240,11.7,28.6,75,0.00,,OVC022,0.00,334.00,VWS V14.01,2014-01-07 15:55:00,
2014-01-07 11:00:00,-3.7,-9.9,30.27,WSW,246,16.9,26.0,74,0.00,,OVC022,0.00,236.00,VWS V14.01,2014-01-07 16:00:00,
2014-01-07 11:05:00,-3.6,-9.8,30.26,WSW,238,5.2,26.0,74,0.00,,OVC022,0.00,308.00,VWS V14.01,2014-01-07 16:05:00,
2014-01-07 11:10:00,-3.0,-9.2,30.27,WSW,238,5.2,29.9,74,0.00,,OVC022,0.00,413.00,VWS V14.01,2014-01-07 16:10:00,
2014-01-07 11:15:00,-2.5,-8.7,30.27,SW,217,14.3,26.0,74,0.00,,OVC022,0.00,285.00,VWS V14.01,2014-01-07 16:15:00,
2014-01-07 11:20:00,-2.8,-9.3,30.26,WSW,238,13.0,24.7,73,0.00,,OVC024,0.00,336.00,VWS V14.01,2014-01-07 16:20:00,
2014-01-07 11:25:00,-3.0,-9.5,30.26,WSW,244,13.0,28.6,73,0.00,,OVC024,0.00,378.00,VWS V14.01,2014-01-07 16:25:00,
2014-01-07 11:30:00,-2.9,-9.4,30.26,West,265,9.1,27.3,73,0.00,,OVC024,0.00,179.00,VWS V14.01,2014-01-07 16:30:00,
2014-01-07 11:35:00,-2.9,-9.7,30.25,SW,222,31.2,33.8,72,0.00,,OVC024,0.00,209.00,VWS V14.01,2014-01-07 16:35:00,
2014-01-07 11:40:00,-3.2,-10.0,30.25,WSW,258,11.7,27.3,72,0.00,,OVC027,0.00,221.00,VWS V14.01,2014-01-07 16:40:00,
2014-01-07 11:45:00,-2.8,-9.3,30.25,West,276,20.8,27.3,73,0.00,,OVC027,0.00,269.00,VWS V14.01,2014-01-07 16:45:00,
2014-01-07 11:50:00,-2.8,-9.3,30.26,SW,223,22.1,26.0,73,0.00,,OVC027,0.00,209.00,VWS V14.01,2014-01-07 16:50:00,
2014-01-07 11:55:00,-2.6,-9.1,30.25,WSW,249,24.7,26.0,73,0.00,,OVC027,0.00,297.00,VWS V14.01,2014-01-07 16:55:00,
2014-01-07 12:00:00,-2.6,-9.1,30.26,WSW,249,14.3,31.2,73,0.00,,OVC023,0.00,225.00,VWS V14.01,2014-01-07 17:00:00,
2014-01-07 12:05:00,-2.5,-9.0,30.25,West,261,18.2,27.3,73,0.00,,OVC023,0.00,241.00,VWS V14.01,2014-01-07 17:05:00,
2014-01-07 12:10:00,-2.4,-8.9,30.25,West,276,9.1,20.8,73,0.00,,OVC023,0.00,227.00,VWS V14.01,2014-01-07 17:10:00,
2014-01-07 12:15:00,-2.1,-8.6,30.24,WSW,242,19.5,26.0,73,0.00,,OVC023,0.00,243.00,VWS V14.01,2014-01-07 17:15:00,
2014-01-07 12:20:00,-2.3,-8.8,30.24,SW,222,10.4,27.3,73,0.00,,OVC023,0.00,200.00,VWS V14.01,2014-01-07 17:20:00,
2014-01-07 12:25:00,-2.3,-8.8,30.25,West,261,15.6,27.3,73,0.00,,OVC023,0.00,260.00,VWS V14.01,2014-01-07 17:25:00,
2014-01-07 12:30:00,-2.1,-8.6,30.25,WSW,238,22.1,23.4,73,0.00,,OVC023,0.00,200.00,VWS V14.01,2014-01-07 17:30:00,
2014-01-07 12:35:00,-1.9,-8.4,30.25,SW,218,13.0,27.3,73,0.00,,OVC023,0.00,345.00,VWS V14.01,2014-01-07 17:35:00,
2014-01-07 12:40:00,-1.8,-8.1,30.25,SW,214,7.8,20.8,74,0.00,,OVC023,0.00,172.00,VWS V14.01,2014-01-07 17:40:00,
2014-01-07 12:45:00,-1.5,-7.8,30.25,West,262,14.3,22.1,74,0.00,,OVC023,0.00,200.00,VWS V14.01,2014-01-07 17:45:00,
2014-01-07 12:50:00,-1.5,-7.8,30.25,West,273,16.9,28.6,74,0.00,,OVC023,0.00,294.00,VWS V14.01,2014-01-07 17:50:00,
2014-01-07 12:55:00,-1.0,-7.6,30.25,WSW,257,9.1,29.9,73,0.00,,OVC023,0.00,313.00,VWS V14.01,2014-01-07 17:55:00,
2014-01-07 13:00:00,-0.7,-7.3,30.25,WSW,237,9.1,20.8,73,0.00,,OVC020,0.00,272.00,VWS V14.01,2014-01-07 18:00:00,
2014-01-07 13:05:00,-0.4,-7.0,30.25,West,265,19.5,23.4,73,0.00,,OVC020,0.00,422.00,VWS V14.01,2014-01-07 18:05:00,
2014-01-07 13:10:00,-0.4,-7.2,30.25,WSW,250,5.2,31.2,72,0.00,,OVC020,0.00,269.00,VWS V14.01,2014-01-07 18:10:00,
2014-01-07 13:15:00,0.3,-6.3,30.25,WSW,241,11.7,23.4,73,0.00,,OVC020,0.00,221.00,VWS V14.01,2014-01-07 18:15:00,
2014-01-07 13:20:00,-0.2,-7.3,30.24,West,267,13.0,29.9,71,0.00,,OVC020,0.00,415.00,VWS V14.01,2014-01-07 18:20:00,
2014-01-07 13:25:00,-0.1,-6.9,30.24,SSW,207,23.4,23.4,72,0.00,,OVC020,0.00,355.00,VWS V14.01,2014-01-07 18:25:00,
2014-01-07 13:30:00,0.4,-6.5,30.24,WSW,250,3.9,24.7,72,0.00,,OVC020,0.00,376.00,VWS V14.01,2014-01-07 18:30:00,
2014-01-07 13:35:00,0.9,-6.0,30.23,West,264,24.7,24.7,72,0.00,,OVC020,0.00,276.00,VWS V14.01,2014-01-07 18:35:00,
2014-01-07 13:40:00,0.6,-6.6,30.23,WSW,242,10.4,18.2,71,0.00,,OVC023,0.00,338.00,VWS V14.01,2014-01-07 18:40:00,
2014-01-07 13:45:00,0.9,-6.0,30.23,WSW,249,5.2,20.8,72,0.00,,OVC023,0.00,311.00,VWS V14.01,2014-01-07 18:45:00,
2014-01-07 13:50:00,0.5,-6.7,30.24,West,273,7.8,24.7,71,0.00,,OVC023,0.00,306.00,VWS V14.01,2014-01-07 18:50:00,
2014-01-07 13:55:00,0.3,-6.6,30.24,WSW,243,6.5,23.4,72,0.00,,OVC023,0.00,255.00,VWS V14.01,2014-01-07 18:55:00,
2014-01-07 14:00:00,0.1,-6.8,30.24,WSW,242,16.9,26.0,72,0.00,,OVC031,0.00,206.00,VWS V14.01,2014-01-07 19:00:00,
2014-01-07 14:05:00,1.2,-5.1,30.24,West,267,5.2,20.8,74,0.00,,OVC031,0.00,346.00,VWS V14.01,2014-01-07 19:05:00,
2014-01-07 14:10:00,1.5,-5.1,30.24,West,265,11.7,23.4,73,0.00,,OVC031,0.00,250.00,VWS V14.01,2014-01-07 19:10:00,
2014-01-07 14:15:00,1.5,-5.1,30.24,West,263,16.9,27.3,73,0.00,,OVC031,0.00,260.00,VWS V14.01,2014-01-07 19:15:00,
2014-01-07 14:20:00,1.3,-5.6,30.24,WSW,248,22.1,24.7,72,0.00,,OVC025,0.00,229.00,VWS V14.01,2014-01-07 19:20:00,
2014-01-07 14:25:00,1.0,-5.6,30.24,WSW,256,13.0,23.4,73,0.00,,OVC025,0.00,322.00,VWS V14.01,2014-01-07 19:25:00,
2014-01-07 14:30:00,1.8,-4.8,30.24,SSW,198,9.1,24.7,73,0.00,,OVC025,0.00,123.00,VWS V14.01,2014-01-07 19:30:00,
2014-01-07 14:35:00,1.5,-5.4,30.24,SW,234,7.8,27.3,72,0.00,,OVC025,0.00,257.00,VWS V14.01,2014-01-07 19:35:00,
2014-01-07 14:40:00,1.3,-5.9,30.25,SW,225,6.5,26.0,71,0.00,,OVC025,0.00,236.00,VWS V14.01,2014-01-07 19:40:00,
2014-01-07 14:45:00,1.5,-5.4,30.25,WSW,246,3.9,14.3,72,0.00,,OVC025,0.00,125.00,VWS V14.01,2014-01-07 19:45:00,
2014-01-07 14:50:00,1.4,-5.5,30.25,SW,236,11.7,15.6,72,0.00,,OVC025,0.00,209.00,VWS V14.01,2014-01-07 19:50:00,
2014-01-07 14:55:00,1.4,-5.5,30.25,West,268,13.0,24.7,72,0.00,,OVC025,0.00,186.00,VWS V14.01,2014-01-07 19:55:00,
2014-01-07 15:00:00,2.0,-4.9,30.25,WSW,257,16.9,22.1,72,0.00,,BKN028,0.00,109.00,VWS V14.01,2014-01-07 20:00:00,
2014-01-07 15:05:00,1.5,-5.4,30.25,SSW,205,9.1,24.7,72,0.00,,BKN028,0.00,100.00,VWS V14.01,2014-01-07 20:05:00,
2014-01-07 15:10:00,1.7,-5.2,30.25,West,268,22.1,22.1,72,0.00,,BKN028,0.00,162.00,VWS V14.01,2014-01-07 20:10:00,
2014-01-07 15:15:00,1.9,-5.0,30.25,WSW,240,13.0,26.0,72,0.00,,BKN028,0.00,202.00,VWS V14.01,2014-01-07 20:15:00,
2014-01-07 15:20:00,2.3,-4.6,30.25,West,261,6.5,18.2,72,0.00,,BKN034,0.00,183.00,VWS V14.01,2014-01-07 20:20:00,
2014-01-07 15:25:00,2.0,-5.2,30.25,WSW,249,3.9,23.4,71,0.00,,BKN034,0.00,156.00,VWS V14.01,2014-01-07 20:25:00,
2014-01-07 15:30:00,1.7,-5.5,30.25,SW,236,6.5,22.1,71,0.00,,BKN034,0.00,118.00,VWS V14.01,2014-01-07 20:30:00,
2014-01-07 15:35:00,1.9,-5.3,30.26,SW,221,19.5,24.7,71,0.00,,BKN034,0.00,86.00,VWS V14.01,2014-01-07 20:35:00,
2014-01-07 15:40:00,2.0,-5.2,30.26,West,279,3.9,23.4,71,0.00,,OVC032,0.00,77.00,VWS V14.01,2014-01-07 20:40:00,
2014-01-07 15:45:00,2.1,-5.1,30.26,West,280,5.2,18.2,71,0.00,,OVC032,0.00,128.00,VWS V14.01,2014-01-07 20:45:00,
2014-01-07 15:50:00,2.3,-4.9,30.26,West,261,16.9,19.5,71,0.00,,OVC032,0.00,144.00,VWS V14.01,2014-01-07 20:50:00,
2014-01-07 15:55:00,2.8,-4.4,30.26,West,269,3.9,20.8,71,0.00,,OVC032,0.00,118.00,VWS V14.01,2014-01-07 20:55:00,
2014-01-07 16:00:00,2.7,-4.8,30.26,SW,229,2.6,26.0,70,0.00,,BKN032,0.00,69.00,VWS V14.01,2014-01-07 21:00:00,
2014-01-07 16:05:00,2.4,-5.1,30.26,SW,231,6.5,23.4,70,0.00,,BKN032,0.00,54.00,VWS V14.01,2014-01-07 21:05:00,
2014-01-07 16:10:00,2.2,-5.3,30.26,SSW,213,13.0,13.0,70,0.00,,BKN032,0.00,69.00,VWS V14.01,2014-01-07 21:10:00,
2014-01-07 16:15:00,2.0,-5.2,30.27,SW,215,11.7,20.8,71,0.00,,BKN032,0.00,62.00,VWS V14.01,2014-01-07 21:15:00,
2014-01-07 16:20:00,2.0,-5.2,30.27,WSW,238,6.5,13.0,71,0.00,,SCT035,0.00,53.00,VWS V14.01,2014-01-07 21:20:00,
2014-01-07 16:25:00,2.0,-5.2,30.27,WSW,244,6.5,18.2,71,0.00,,SCT035,0.00,28.00,VWS V14.01,2014-01-07 21:25:00,
2014-01-07 16:30:00,1.8,-5.1,30.27,SW,221,15.6,18.2,72,0.00,,SCT035,0.00,18.00,VWS V14.01,2014-01-07 21:30:00,
2014-01-07 16:35:00,1.5,-5.4,30.27,SW,221,7.8,15.6,72,0.00,,SCT035,0.00,16.00,VWS V14.01,2014-01-07 21:35:00,
2014-01-07 16:40:00,1.3,-5.6,30.27,West,267,3.9,16.9,72,0.00,,SCT030,0.00,18.00,VWS V14.01,2014-01-07 21:40:00,
2014-01-07 16:45:00,1.3,-5.3,30.27,SW,225,6.5,18.2,73,0.00,,SCT030,0.00,21.00,VWS V14.01,2014-01-07 21:45:00,
2014-01-07 16:50:00,1.2,-5.1,30.27,SW,232,6.5,14.3,74,0.00,,SCT030,0.00,14.00,VWS V14.01,2014-01-07 21:50:00,
2014-01-07 16:55:00,1.2,-5.1,30.27,SW,229,10.4,22.1,74,0.00,,SCT030,0.00,11.00,VWS V14.01,2014-01-07 21:55:00,
2014-01-07 17:00:00,1.2,-5.1,30.28,WSW,239,3.9,13.0,74,0.00,,BKN032,0.00,7.00,VWS V14.01,2014-01-07 22:00:00,
2014-01-07 17:05:00,1.1,-5.0,30.27,WSW,250,6.5,20.8,75,0.00,,BKN032,0.00,0.00,VWS V14.01,2014-01-07 22:05:00,
2014-01-07 17:10:00,1.1,-5.0,30.27,SW,232,9.1,23.4,75,0.00,,BKN032,0.00,0.00,VWS V14.01,2014-01-07 22:10:00,
2014-01-07 17:15:00,1.1,-5.0,30.27,SW,223,9.1,16.9,75,0.00,,BKN032,0.00,0.00,VWS V14.01,2014-01-07 22:15:00,
2014-01-07 17:20:00,1.0,-5.3,30.27,SSW,211,2.6,18.2,74,0.00,,SCT019,0.00,0.00,VWS V14.01,2014-01-07 22:20:00,
2014-01-07 17:25:00,1.0,-5.3,30.27,WSW,253,13.0,19.5,74,0.00,,SCT019,0.00,0.00,VWS V14.01,2014-01-07 22:25:00,
2014-01-07 17:30:00,1.0,-5.3,30.27,WSW,240,5.2,15.6,74,0.00,,SCT019,0.00,0.00,VWS V14.01,2014-01-07 22:30:00,
2014-01-07 17:35:00,1.0,-5.3,30.28,SW,236,13.0,20.8,74,0.00,,SCT019,0.00,0.00,VWS V14.01,2014-01-07 22:35:00,
2014-01-07 17:40:00,1.0,-5.3,30.28,SW,223,6.5,20.8,74,0.00,,CLR,0.00,0.00,VWS V14.01,2014-01-07 22:40:00,
2014-01-07 17:45:00,1.0,-5.3,30.28,WSW,241,13.0,19.5,74,0.00,,CLR,0.00,0.00,VWS V14.01,2014-01-07 22:45:00,
2014-01-07 17:50:00,1.0,-5.3,30.28,SW,236,7.8,15.6,74,0.00,,CLR,0.00,0.00,VWS V14.01,2014-01-07 22:50:00,
2014-01-07 17:55:00,1.0,-5.3,30.28,West,259,6.5,11.7,74,0.00,,CLR,0.00,0.00,VWS V14.01,2014-01-07 22:55:00,
2014-01-07 18:00:00,0.9,-5.4,30.28,WSW,237,6.5,11.7,74,0.00,,CLR,0.00,0.00,VWS V14.01,2014-01-07 23:00:00,
2014-01-07 18:05:00,0.9,-5.4,30.28,SW,215,2.6,11.7,74,0.00,,CLR,0.00,0.00,VWS V14.01,2014-01-07 23:05:00,
2014-01-07 18:10:00,0.9,-5.4,30.28,SSW,211,6.5,16.9,74,0.00,,CLR,0.00,0.00,VWS V14.01,2014-01-07 23:10:00,
2014-01-07 18:15:00,0.8,-5.5,30.28,SW,223,1.3,7.8,74,0.00,,CLR,0.00,0.00,VWS V14.01,2014-01-07 23:15:00,
2014-01-07 18:20:00,0.7,-5.6,30.29,WSW,242,5.2,14.3,74,0.00,,CLR,0.00,0.00,VWS V14.01,2014-01-07 23:20:00,
2014-01-07 18:25:00,0.6,-5.7,30.29,WSW,246,5.2,11.7,74,0.00,,CLR,0.00,0.00,VWS V14.01,2014-01-07 23:25:00,
2014-01-07 18:30:00,0.5,-5.5,30.29,SSW,206,5.2,13.0,75,0.00,,CLR,0.00,0.00,VWS V14.01,2014-01-07 23:30:00,
2014-01-07 18:35:00,0.5,-5.5,30.29,SW,234,9.1,11.7,75,0.00,,CLR,0.00,0.00,VWS V14.01,2014-01-07 23:35:00,
2014-01-07 18:40:00,0.5,-5.5,30.29,SW,231,5.2,13.0,75,0.00,,CLR,0.00,0.00,VWS V14.01,2014-01-07 23:40:00,
2014-01-07 18:45:00,0.5,-5.5,30.29,SW,214,6.5,11.7,75,0.00,,CLR,0.00,0.00,VWS V14.01,2014-01-07 23:45:00,
2014-01-07 18:50:00,0.4,-5.6,30.29,SSW,200,5.2,13.0,75,0.00,,CLR,0.00,0.00,VWS V14.01,2014-01-07 23:50:00,
2014-01-07 18:55:00,0.5,-5.5,30.29,SSW,207,3.9,13.0,75,0.00,,CLR,0.00,0.00,VWS V14.01,2014-01-07 23:55:00,
2014-01-07 19:00:00,0.5,-5.5,30.30,SW,221,0.0,11.7,75,0.00,,CLR,0.00,0.00,VWS V14.01,2014-01-08 00:00:00,
2014-01-07 19:05:00,0.6,-5.2,30.30,SW,226,3.9,11.7,76,0.00,,CLR,0.00,0.00,VWS V14.01,2014-01-08 00:05:00,
2014-01-07 19:10:00,0.6,-5.2,30.30,SSW,203,2.6,10.4,76,0.00,,CLR,0.00,0.00,VWS V14.01,2014-01-08 00:10:00,
2014-01-07 19:15:00,0.7,-5.1,30.30,South,188,6.5,11.7,76,0.00,,CLR,0.00,0.00,VWS V14.01,2014-01-08 00:15:00,
2014-01-07 19:20:00,0.7,-5.1,30.30,SSW,195,5.2,11.7,76,0.00,,CLR,0.00,0.00,VWS V14.01,2014-01-08 00:20:00,
2014-01-07 19:25:00,0.7,-5.1,30.30,SW,214,5.2,13.0,76,0.00,,CLR,0.00,0.00,VWS V14.01,2014-01-08 00:25:00,
2014-01-07 19:30:00,0.7,-5.1,30.31,SW,222,0.0,10.4,76,0.00,,CLR,0.00,0.00,VWS V14.01,2014-01-08 00:30:00,
2014-01-07 19:35:00,0.7,-5.1,30.30,SW,218,6.5,9.1,76,0.00,,CLR,0.00,0.00,VWS V14.01,2014-01-08 00:35:00,
2014-01-07 19:40:00,0.7,-5.1,30.31,SW,217,0.0,9.1,76,0.00,,CLR,0.00,0.00,VWS V14.01,2014-01-08 00:40:00,
2014-01-07 19:45:00,0.7,-5.1,30.31,SSW,209,10.4,14.3,76,0.00,,CLR,0.00,0.00,VWS V14.01,2014-01-08 00:45:00,
2014-01-07 19:50:00,0.8,-5.0,30.31,SW,223,9.1,13.0,76,0.00,,CLR,0.00,0.00,VWS V14.01,2014-01-08 00:50:00,
2014-01-07 19:55:00,0.9,-4.6,30.31,SW,234,11.7,15.6,77,0.00,,CLR,0.00,0.00,VWS V14.01,2014-01-08 00:55:00,
2014-01-07 20:00:00,1.0,-4.8,30.32,SW,217,7.8,11.7,76,0.00,,CLR,0.00,0.00,VWS V14.01,2014-01-08 01:00:00,
2014-01-07 20:05:00,1.0,-4.5,30.32,WSW,247,2.6,14.3,77,0.00,,CLR,0.00,0.00,VWS V14.01,2014-01-08 01:05:00,
2014-01-07 20:10:00,1.0,-4.5,30.32,SW,227,3.9,15.6,77,0.00,,CLR,0.00,0.00,VWS V14.01,2014-01-08 01:10:00,
2014-01-07 20:15:00,1.0,-4.5,30.32,SW,221,2.6,15.6,77,0.00,,CLR,0.00,0.00,VWS V14.01,2014-01-08 01:15:00,
2014-01-07 20:20:00,1.0,-4.5,30.31,SW,218,5.2,13.0,77,0.00,,CLR,0.00,0.00,VWS V14.01,2014-01-08 01:20:00,
2014-01-07 20:25:00,1.1,-4.4,30.32,SSW,211,6.5,20.8,77,0.00,,CLR,0.00,0.00,VWS V14.01,2014-01-08 01:25:00,
2014-01-07 20:30:00,1.1,-4.4,30.32,SW,233,3.9,15.6,77,0.00,,CLR,0.00,0.00,VWS V14.01,2014-01-08 01:30:00,
2014-01-07 20:35:00,1.1,-4.4,30.33,SSW,209,9.1,15.6,77,0.00,,CLR,0.00,0.00,VWS V14.01,2014-01-08 01:35:00,
2014-01-07 20:40:00,1.2,-4.3,30.32,SSW,208,6.5,15.6,77,0.00,,CLR,0.00,0.00,VWS V14.01,2014-01-08 01:40:00,
2014-01-07 20:45:00,1.3,-4.2,30.32,SW,217,5.2,14.3,77,0.00,,CLR,0.00,0.00,VWS V14.01,2014-01-08 01:45:00,
2014-01-07 20:50:00,1.4,-4.1,30.32,SSW,198,5.2,13.0,77,0.00,,CLR,0.00,0.00,VWS V14.01,2014-01-08 01:50:00,
2014-01-07 20:55:00,1.5,-4.0,30.33,SW,227,6.5,14.3,77,0.00,,CLR,0.00,0.00,VWS V14.01,2014-01-08 01:55:00,
2014-01-07 21:00:00,1.6,-3.9,30.33,SW,214,3.9,13.0,77,0.00,,CLR,0.00,0.00,VWS V14.01,2014-01-08 02:00:00,
2014-01-07 21:05:00,1.7,-3.8,30.33,West,271,0.0,14.3,77,0.00,,CLR,0.00,0.00,VWS V14.01,2014-01-08 02:05:00,
2014-01-07 21:10:00,1.7,-3.8,30.33,SW,219,2.6,14.3,77,0.00,,CLR,0.00,0.00,VWS V14.01,2014-01-08 02:10:00,
2014-01-07 21:15:00,1.8,-3.7,30.33,SSW,205,10.4,15.6,77,0.00,,CLR,0.00,0.00,VWS V14.01,2014-01-08 02:15:00,
2014-01-07 21:20:00,1.8,-3.7,30.32,SW,227,11.7,13.0,77,0.00,,CLR,0.00,0.00,VWS V14.01,2014-01-08 02:20:00,
2014-01-07 21:25:00,1.8,-3.7,30.33,SW,225,3.9,15.6,77,0.00,,CLR,0.00,0.00,VWS V14.01,2014-01-08 02:25:00,
2014-01-07 21:30:00,1.8,-3.7,30.33,SSW,210,7.8,13.0,77,0.00,,CLR,0.00,0.00,VWS V14.01,2014-01-08 02:30:00,
2014-01-07 21:35:00,1.8,-3.7,30.33,SSW,207,3.9,13.0,77,0.00,,CLR,0.00,0.00,VWS V14.01,2014-01-08 02:35:00,
2014-01-07 21:40:00,1.8,-3.7,30.33,SW,217,7.8,13.0,77,0.00,,CLR,0.00,0.00,VWS V14.01,2014-01-08 02:40:00,
2014-01-07 21:45:00,1.8,-3.7,30.33,SSW,199,10.4,15.6,77,0.00,,CLR,0.00,0.00,VWS V14.01,2014-01-08 02:45:00,
2014-01-07 21:50:00,1.8,-3.7,30.33,SW,214,5.2,14.3,77,0.00,,CLR,0.00,0.00,VWS V14.01,2014-01-08 02:50:00,
2014-01-07 21:55:00,1.7,-3.8,30.33,SW,229,5.2,13.0,77,0.00,,CLR,0.00,0.00,VWS V14.01,2014-01-08 02:55:00,
2014-01-07 22:00:00,1.7,-3.8,30.34,SSW,208,3.9,10.4,77,0.00,,CLR,0.00,0.00,VWS V14.01,2014-01-08 03:00:00,
2014-01-07 22:05:00,1.7,-3.8,30.34,SW,221,6.5,10.4,77,0.00,,CLR,0.00,0.00,VWS V14.01,2014-01-08 03:05:00,
2014-01-07 22:10:00,1.6,-3.9,30.34,SSW,207,5.2,9.1,77,0.00,,CLR,0.00,0.00,VWS V14.01,2014-01-08 03:10:00,
2014-01-07 22:15:00,1.6,-3.9,30.34,SW,222,3.9,13.0,77,0.00,,CLR,0.00,0.00,VWS V14.01,2014-01-08 03:15:00,
2014-01-07 22:20:00,1.5,-4.0,30.34,SSW,199,1.3,9.1,77,0.00,,CLR,0.00,0.00,VWS V14.01,2014-01-08 03:20:00,
2014-01-07 22:25:00,1.4,-4.1,30.35,SSW,198,3.9,10.4,77,0.00,,CLR,0.00,0.00,VWS V14.01,2014-01-08 03:25:00,
2014-01-07 22:30:00,1.4,-4.1,30.35,SW,221,6.5,11.7,77,0.00,,CLR,0.00,0.00,VWS V14.01,2014-01-08 03:30:00,
2014-01-07 22:35:00,1.4,-4.1,30.35,SSW,196,2.6,11.7,77,0.00,,CLR,0.00,0.00,VWS V14.01,2014-01-08 03:35:00,
2014-01-07 22:40:00,1.4,-4.1,30.35,SW,232,3.9,7.8,77,0.00,,CLR,0.00,0.00,VWS V14.01,2014-01-08 03:40:00,
2014-01-07 22:45:00,1.3,-4.2,30.35,SW,226,3.9,7.8,77,0.00,,CLR,0.00,0.00,VWS V14.01,2014-01-08 03:45:00,
2014-01-07 22:50:00,1.3,-4.2,30.34,SSW,200,6.5,9.1,77,0.00,,CLR,0.00,0.00,VWS V14.01,2014-01-08 03:50:00,
2014-01-07 22:55:00,1.2,-4.3,30.34,SSW,202,2.6,10.4,77,0.00,,CLR,0.00,0.00,VWS V14.01,2014-01-08 03:55:00,
2014-01-07 23:00:00,1.2,-4.3,30.34,SSW,209,5.2,9.1,77,0.00,,CLR,0.00,0.00,VWS V14.01,2014-01-08 04:00:00,
2014-01-07 23:05:00,1.2,-4.3,30.34,SSW,209,3.9,5.2,77,0.00,,CLR,0.00,0.00,VWS V14.01,2014-01-08 04:05:00,
2014-01-07 23:10:00,1.1,-4.4,30.35,SW,236,2.6,5.2,77,0.00,,CLR,0.00,0.00,VWS V14.01,2014-01-08 04:10:00,
2014-01-07 23:15:00,1.1,-4.4,30.35,SSW,211,3.9,6.5,77,0.00,,CLR,0.00,0.00,VWS V14.01,2014-01-08 04:15:00,
2014-01-07 23:20:00,1.1,-4.4,30.35,SSW,207,3.9,9.1,77,0.00,,CLR,0.00,0.00,VWS V14.01,2014-01-08 04:20:00,
2014-01-07 23:25:00,1.1,-4.1,30.35,SW,218,5.2,5.2,78,0.00,,CLR,0.00,0.00,VWS V14.01,2014-01-08 04:25:00,
2014-01-07 23:30:00,1.1,-4.1,30.35,SW,214,7.8,7.8,78,0.00,,CLR,0.00,0.00,VWS V14.01,2014-01-08 04:30:00,
2014-01-07 23:35:00,1.1,-4.1,30.35,South,189,2.6,6.5,78,0.00,,CLR,0.00,0.00,VWS V14.01,2014-01-08 04:35:00,
2014-01-07 23:40:00,1.1,-4.1,30.35,SW,221,1.3,5.2,78,0.00,,CLR,0.00,0.00,VWS V14.01,2014-01-08 04:40:00,
2014-01-07 23:45:00,1.1,-4.1,30.35,SSW,196,3.9,7.8,78,0.00,,CLR,0.00,0.00,VWS V14.01,2014-01-08 04:45:00,
2014-01-07 23:50:00,1.1,-4.1,30.35,SSW,202,3.9,6.5,78,0.00,,CLR,0.00,0.00,VWS V14.01,2014-01-08 04:50:00,
2014-01-07 23:54:00,1.0,-4.2,30.35,SW,223,3.9,5.2,78,0.00,,CLR,0.00,0.00,VWS V14.01,2014-01-08 04:54:00,
2014-01-07 23:59:00,1.0,-4.2,30.34,SW,221,0.0,3.9,78,0.00,,CLR,0.00,0.00,VWS V14.01,2014-01-08 04:59:00,